sensor_id;sensor_type;location;lat;lon;timestamp;P1;durP1;ratioP1;P2;durP2;ratioP2
33485;SDS011;19824;52.098;5.004;2023-02-28T06:02:34;8.02;;;3.13;;
33485;SDS011;19824;52.098;5.004;2023-02-28T06:06:23;5.88;;;3.13;;
33485;SDS011;19824;52.098;5.004;2023-02-28T06:13:38;6.45;;;3.58;;
33485;SDS011;19824;52.098;5.004;2023-02-28T07:00:31;9.40;;;5.88;;
33485;SDS011;19824;52.098;5.004;2023-02-28T07:03:12;10.85;;;6.45;;
33485;SDS011;19824;52.098;5.004;2023-02-28T07:05:44;12.00;;;6.90;;
33485;SDS011;19824;52.098;5.004;2023-02-28T07:08:20;10.05;;;6.22;;
33485;SDS011;19824;52.098;5.004;2023-02-28T07:10:51;10.00;;;6.68;;
33485;SDS011;19824;52.098;5.004;2023-02-28T07:13:29;10.18;;;7.35;;
33485;SDS011;19824;52.098;5.004;2023-02-28T07:16:00;11.13;;;6.60;;
33485;SDS011;19824;52.098;5.004;2023-02-28T07:18:48;10.02;;;6.50;;
33485;SDS011;19824;52.098;5.004;2023-02-28T07:21:18;13.18;;;7.50;;
33485;SDS011;19824;52.098;5.004;2023-02-28T07:23:57;12.90;;;7.13;;
33485;SDS011;19824;52.098;5.004;2023-02-28T07:26:27;14.00;;;7.97;;
33485;SDS011;19824;52.098;5.004;2023-02-28T07:29:06;14.38;;;8.27;;
33485;SDS011;19824;52.098;5.004;2023-02-28T07:31:37;11.93;;;8.15;;
33485;SDS011;19824;52.098;5.004;2023-02-28T07:34:16;13.98;;;8.75;;
33485;SDS011;19824;52.098;5.004;2023-02-28T07:36:46;13.27;;;8.85;;
33485;SDS011;19824;52.098;5.004;2023-02-28T07:39:25;15.07;;;8.95;;
33485;SDS011;19824;52.098;5.004;2023-02-28T07:41:55;10.98;;;8.35;;
33485;SDS011;19824;52.098;5.004;2023-02-28T07:44:32;11.90;;;8.65;;
33485;SDS011;19824;52.098;5.004;2023-02-28T07:47:12;11.48;;;8.35;;
33485;SDS011;19824;52.098;5.004;2023-02-28T07:49:45;15.57;;;9.23;;
33485;SDS011;19824;52.098;5.004;2023-02-28T07:52:23;14.48;;;9.35;;
33485;SDS011;19824;52.098;5.004;2023-02-28T07:55:00;13.50;;;9.10;;
33485;SDS011;19824;52.098;5.004;2023-02-28T07:57:31;14.90;;;8.60;;
33485;SDS011;19824;52.098;5.004;2023-02-28T08:00:08;13.35;;;8.43;;
33485;SDS011;19824;52.098;5.004;2023-02-28T08:02:43;15.55;;;8.60;;
33485;SDS011;19824;52.098;5.004;2023-02-28T08:05:22;12.38;;;8.65;;
33485;SDS011;19824;52.098;5.004;2023-02-28T08:07:52;13.93;;;9.07;;
33485;SDS011;19824;52.098;5.004;2023-02-28T08:10:28;15.98;;;8.70;;
33485;SDS011;19824;52.098;5.004;2023-02-28T08:12:58;12.57;;;8.85;;
33485;SDS011;19824;52.098;5.004;2023-02-28T08:15:40;15.82;;;9.02;;
33485;SDS011;19824;52.098;5.004;2023-02-28T08:18:11;13.43;;;8.50;;
33485;SDS011;19824;52.098;5.004;2023-02-28T08:20:50;17.65;;;8.32;;
33485;SDS011;19824;52.098;5.004;2023-02-28T08:23:20;16.23;;;9.45;;
33485;SDS011;19824;52.098;5.004;2023-02-28T08:26:00;17.25;;;9.18;;
33485;SDS011;19824;52.098;5.004;2023-02-28T08:28:37;16.10;;;9.15;;
33485;SDS011;19824;52.098;5.004;2023-02-28T08:31:08;16.98;;;9.85;;
33485;SDS011;19824;52.098;5.004;2023-02-28T08:33:46;16.13;;;9.80;;
33485;SDS011;19824;52.098;5.004;2023-02-28T08:36:22;18.00;;;10.07;;
33485;SDS011;19824;52.098;5.004;2023-02-28T08:39:01;15.32;;;10.07;;
33485;SDS011;19824;52.098;5.004;2023-02-28T08:41:39;15.23;;;9.70;;
33485;SDS011;19824;52.098;5.004;2023-02-28T08:44:14;16.67;;;10.07;;
33485;SDS011;19824;52.098;5.004;2023-02-28T08:46:50;18.35;;;9.88;;
33485;SDS011;19824;52.098;5.004;2023-02-28T08:49:20;15.25;;;9.55;;
33485;SDS011;19824;52.098;5.004;2023-02-28T08:52:02;17.25;;;10.07;;
33485;SDS011;19824;52.098;5.004;2023-02-28T08:54:32;16.02;;;9.70;;
33485;SDS011;19824;52.098;5.004;2023-02-28T08:57:14;13.00;;;7.53;;
33485;SDS011;19824;52.098;5.004;2023-02-28T08:59:44;15.48;;;7.40;;
33485;SDS011;19824;52.098;5.004;2023-02-28T09:04:53;12.73;;;6.82;;
33485;SDS011;19824;52.098;5.004;2023-02-28T09:22:56;6.88;;;4.20;;
33485;SDS011;19824;52.098;5.004;2023-02-28T09:29:31;5.57;;;3.35;;
33485;SDS011;19824;52.098;5.004;2023-02-28T09:32:08;7.22;;;3.70;;
